createdAt,value
2022-08-25T00:00:23.074Z,21.00
2022-08-25T00:03:08.209Z,21.01
2022-08-25T00:05:37.942Z,21.03
2022-08-25T00:08:09.933Z,21.02
2022-08-25T00:10:41.690Z,21.01
2022-08-25T00:13:11.431Z,21.02
2022-08-25T00:15:41.315Z,21.02
2022-08-25T00:18:11.526Z,21.03
2022-08-25T00:20:49.842Z,21.01
2022-08-25T00:23:20.953Z,21.02
2022-08-25T00:25:50.937Z,21.01
2022-08-25T00:28:20.346Z,21.03
2022-08-25T00:30:50.101Z,21.01
2022-08-25T00:33:20.019Z,21.02
2022-08-25T00:35:50.296Z,21.00
2022-08-25T00:38:21.519Z,21.01
2022-08-25T00:41:05.892Z,21.01
2022-08-25T00:43:38.522Z,21.00
2022-08-25T00:46:08.903Z,21.00
2022-08-25T00:48:40.410Z,20.99
2022-08-25T00:51:14.761Z,20.98
2022-08-25T00:53:45.945Z,20.97
2022-08-25T00:56:16.264Z,20.97
2022-08-25T00:58:48.414Z,20.95
2022-08-25T01:01:18.022Z,20.94
2022-08-25T01:03:47.580Z,20.94
2022-08-25T01:06:16.943Z,20.94
2022-08-25T01:08:48.465Z,20.95
2022-08-25T01:11:17.977Z,20.95
2022-08-25T01:13:55.388Z,20.96
2022-08-25T01:16:26.370Z,20.96
2022-08-25T01:19:00.574Z,20.97
2022-08-25T01:21:34.526Z,20.97
2022-08-25T01:24:04.517Z,20.98
2022-08-25T01:29:22.817Z,20.99
2022-08-25T01:31:55.950Z,21.00
2022-08-25T01:34:26.897Z,21.00
2022-08-25T01:36:59.287Z,21.00
2022-08-25T01:39:31.100Z,20.98
2022-08-25T01:42:20.623Z,20.98
2022-08-25T01:44:50.577Z,20.96
2022-08-25T01:47:20.185Z,20.96
2022-08-25T01:49:49.541Z,20.95
2022-08-25T01:52:25.723Z,20.92
2022-08-25T01:54:55.064Z,20.91
2022-08-25T01:57:24.625Z,20.90
2022-08-25T01:59:54.896Z,20.89
2022-08-25T02:02:24.221Z,20.89
2022-08-25T02:04:56.602Z,20.91
2022-08-25T02:07:27.406Z,20.91
2022-08-25T02:09:57.155Z,20.87
2022-08-25T02:12:31.946Z,20.86
2022-08-25T02:15:02.806Z,20.87
2022-08-25T02:17:32.924Z,20.86
2022-08-25T02:20:02.502Z,20.86
2022-08-25T02:25:02.678Z,20.86
2022-08-25T02:27:32.264Z,20.87
2022-08-25T02:30:01.551Z,20.89
2022-08-25T02:32:31.335Z,20.87
2022-08-25T02:35:01.050Z,20.87
2022-08-25T02:37:30.460Z,20.90
2022-08-25T02:40:01.312Z,20.89
2022-08-25T02:42:31.366Z,20.89
2022-08-25T02:45:00.640Z,20.90
2022-08-25T02:47:31.954Z,20.91
2022-08-25T02:50:01.513Z,20.91
2022-08-25T02:52:31.231Z,20.91
2022-08-25T02:55:04.186Z,20.88
2022-08-25T02:57:33.853Z,20.86
2022-08-25T03:00:03.471Z,20.87
2022-08-25T03:02:32.815Z,20.88
2022-08-25T03:05:02.478Z,20.89
2022-08-25T03:07:31.892Z,20.93
2022-08-25T03:10:10.529Z,20.93
2022-08-25T03:12:41.658Z,20.95
2022-08-25T03:15:12.854Z,20.96
2022-08-25T03:17:43.822Z,20.96
2022-08-25T03:20:15.462Z,20.98
2022-08-25T03:22:44.949Z,20.99
2022-08-25T03:25:33.225Z,20.98
2022-08-25T03:28:03.970Z,20.99
2022-08-25T03:30:33.526Z,20.99
2022-08-25T03:33:02.823Z,21.01
2022-08-25T03:35:32.450Z,21.03
2022-08-25T03:38:02.682Z,21.02
2022-08-25T03:40:33.569Z,21.03
2022-08-25T03:43:03.795Z,21.04
2022-08-25T03:45:32.980Z,21.04
2022-08-25T03:48:02.370Z,21.03
2022-08-25T03:50:31.948Z,21.02
2022-08-25T03:53:01.250Z,21.02
2022-08-25T03:55:32.579Z,21.00
2022-08-25T03:58:02.378Z,20.99
2022-08-25T04:00:31.789Z,21.00
2022-08-25T04:03:01.331Z,20.99
2022-08-25T04:05:30.935Z,20.98
2022-08-25T04:08:02.694Z,20.99
2022-08-25T04:10:33.780Z,20.98
2022-08-25T04:13:03.626Z,20.98
2022-08-25T04:15:33.206Z,20.97
2022-08-25T04:18:02.536Z,20.99
2022-08-25T04:20:31.832Z,20.99
2022-08-25T04:23:01.712Z,21.00
2022-08-25T04:25:31.487Z,21.00
2022-08-25T04:28:02.321Z,21.00
2022-08-25T04:30:31.873Z,21.02
2022-08-25T04:33:03.336Z,21.04
2022-08-25T04:35:32.932Z,21.04
2022-08-25T04:38:02.807Z,21.04
2022-08-25T04:40:33.241Z,21.05
2022-08-25T04:43:04.231Z,21.06
2022-08-25T04:45:33.601Z,21.07
2022-08-25T04:48:02.902Z,21.06
2022-08-25T04:50:32.596Z,21.07
2022-08-25T04:53:02.589Z,21.08
2022-08-25T04:55:31.845Z,21.08
2022-08-25T04:58:01.597Z,21.08
2022-08-25T05:00:32.421Z,21.10
2022-08-25T05:03:01.677Z,21.13
2022-08-25T05:05:31.446Z,21.13
2022-08-25T05:08:03.715Z,21.16
2022-08-25T05:10:33.802Z,21.17
2022-08-25T05:13:03.191Z,21.22
2022-08-25T05:15:52.581Z,21.22
2022-08-25T05:18:26.494Z,21.25
2022-08-25T05:20:56.863Z,21.27
2022-08-25T05:23:27.040Z,21.28
2022-08-25T05:25:56.409Z,21.28
2022-08-25T05:28:25.974Z,21.29
2022-08-25T05:31:00.688Z,21.32
2022-08-25T05:33:32.147Z,21.32
2022-08-25T05:36:02.298Z,21.37
2022-08-25T05:38:31.621Z,21.39
2022-08-25T05:41:03.487Z,21.41
2022-08-25T05:43:33.213Z,21.45
2022-08-25T05:46:04.144Z,21.47
2022-08-25T05:48:33.776Z,21.50
2022-08-25T05:51:05.366Z,21.51
2022-08-25T05:53:35.741Z,21.53
2022-08-25T05:56:06.135Z,21.57
2022-08-25T05:58:36.371Z,21.61
2022-08-25T06:01:20.884Z,21.58
2022-08-25T06:03:50.991Z,21.58
2022-08-25T06:06:20.746Z,21.60
2022-08-25T06:08:50.079Z,21.63
2022-08-25T06:11:20.315Z,21.66
2022-08-25T06:13:50.087Z,21.71
2022-08-25T06:16:20.844Z,21.75
2022-08-25T06:18:50.641Z,21.79
2022-08-25T06:21:19.965Z,21.83
2022-08-25T06:23:50.371Z,21.88
2022-08-25T06:26:22.597Z,21.90
2022-08-25T06:28:54.652Z,21.96
2022-08-25T06:31:25.687Z,21.99
2022-08-25T06:33:55.085Z,22.02
2022-08-25T06:36:24.688Z,22.07
2022-08-25T06:38:54.703Z,22.08
2022-08-25T06:41:25.375Z,22.11
2022-08-25T06:44:07.119Z,22.14
2022-08-25T06:46:37.719Z,22.15
2022-08-25T06:49:08.167Z,22.17
2022-08-25T06:51:37.766Z,22.21
2022-08-25T06:54:10.115Z,22.27
2022-08-25T06:56:40.785Z,22.26
2022-08-25T06:59:11.573Z,22.27
2022-08-25T07:01:42.698Z,22.28
2022-08-25T07:04:13.057Z,22.29
2022-08-25T07:06:43.051Z,22.32
2022-08-25T07:09:13.768Z,22.30
2022-08-25T07:11:46.539Z,22.31
2022-08-25T07:14:17.346Z,22.33
2022-08-25T07:16:50.369Z,22.35
2022-08-25T07:19:21.531Z,22.35
2022-08-25T07:21:54.222Z,22.38
2022-08-25T07:24:24.635Z,22.41
2022-08-25T07:26:54.316Z,22.43
2022-08-25T07:29:31.624Z,22.44
2022-08-25T07:32:05.086Z,22.49
2022-08-25T07:34:52.823Z,22.51
2022-08-25T07:37:50.301Z,22.57
2022-08-25T07:40:26.655Z,22.60
2022-08-25T07:42:58.934Z,22.63
2022-08-25T07:45:31.771Z,22.66
2022-08-25T07:48:05.405Z,22.68
2022-08-25T07:50:38.804Z,22.70
2022-08-25T07:53:08.869Z,22.71
2022-08-25T07:55:38.800Z,22.72
2022-08-25T07:58:10.878Z,22.75
2022-08-25T08:00:42.294Z,22.74
2022-08-25T08:03:35.191Z,22.74
2022-08-25T08:06:03.026Z,22.73
2022-08-25T08:08:33.465Z,22.72
2022-08-25T08:11:04.622Z,22.71
2022-08-25T08:13:39.327Z,22.71
2022-08-25T08:16:11.734Z,22.72
2022-08-25T08:18:44.818Z,22.73
2022-08-25T08:21:19.231Z,22.75
2022-08-25T08:23:50.338Z,22.77
2022-08-25T08:26:20.586Z,22.76
2022-08-25T08:28:51.930Z,22.78
2022-08-25T08:31:24.181Z,22.79
2022-08-25T08:33:58.639Z,22.78
2022-08-25T08:36:28.635Z,22.78
2022-08-25T08:38:59.407Z,22.80
2022-08-25T08:42:11.255Z,22.77
2022-08-25T08:44:58.088Z,22.76
2022-08-25T08:47:52.811Z,22.71
2022-08-25T08:50:33.781Z,22.69
2022-08-25T08:53:11.905Z,22.64
2022-08-25T08:55:44.272Z,22.65
2022-08-25T08:58:19.379Z,22.62
2022-08-25T09:00:52.588Z,22.59
2022-08-25T09:03:32.979Z,22.54
2022-08-25T09:06:07.146Z,22.48
2022-08-25T09:08:39.274Z,22.46
2022-08-25T09:11:24.945Z,22.44
2022-08-25T09:14:11.234Z,22.44
2022-08-25T09:16:57.150Z,22.41
2022-08-25T09:19:48.421Z,22.38
2022-08-25T09:22:35.053Z,22.36
2022-08-25T09:25:18.779Z,22.33
2022-08-25T09:28:06.313Z,22.31
2022-08-25T09:30:48.692Z,22.28
2022-08-25T09:33:23.444Z,22.29
2022-08-25T09:35:57.421Z,22.28
2022-08-25T09:38:30.934Z,22.28
2022-08-25T09:41:02.635Z,22.29
2022-08-25T09:43:35.723Z,22.31
2022-08-25T09:46:12.396Z,22.30
2022-08-25T09:48:48.419Z,22.31
2022-08-25T09:51:42.228Z,22.32
2022-08-25T09:54:25.386Z,22.33
2022-08-25T09:57:05.542Z,22.31
2022-08-25T09:59:39.050Z,22.33
2022-08-25T10:02:26.707Z,22.35
2022-08-25T10:04:57.190Z,22.34
2022-08-25T10:07:33.784Z,22.34
2022-08-25T10:10:07.782Z,22.36
2022-08-25T10:12:43.198Z,22.37
2022-08-25T10:15:29.441Z,22.39
2022-08-25T10:18:25.717Z,22.42
2022-08-25T10:21:10.155Z,22.46
2022-08-25T10:23:44.883Z,22.46
2022-08-25T10:26:25.658Z,22.50
2022-08-25T10:29:07.648Z,22.52
2022-08-25T10:31:49.158Z,22.58
2022-08-25T10:34:31.339Z,22.62
2022-08-25T10:37:12.375Z,22.66
2022-08-25T10:40:02.821Z,22.71
2022-08-25T10:42:40.651Z,22.74
2022-08-25T10:45:38.489Z,22.75
2022-08-25T10:48:31.918Z,22.77
2022-08-25T10:51:09.129Z,22.78
2022-08-25T10:53:51.825Z,22.79
2022-08-25T10:56:25.912Z,22.83
2022-08-25T10:59:22.297Z,22.84
2022-08-25T11:02:29.663Z,22.86
2022-08-25T11:05:04.336Z,22.91
2022-08-25T11:07:38.370Z,22.93
2022-08-25T11:10:14.723Z,22.96
2022-08-25T11:12:46.987Z,23.10
2022-08-25T11:15:21.387Z,23.12
2022-08-25T11:17:58.760Z,23.18
2022-08-25T11:20:34.628Z,23.31
2022-08-25T11:23:13.683Z,23.33
2022-08-25T11:25:45.930Z,23.37
2022-08-25T11:28:23.134Z,23.58
2022-08-25T11:30:57.321Z,23.57
2022-08-25T11:33:31.114Z,23.56
2022-08-25T11:36:03.791Z,23.60
2022-08-25T11:38:47.890Z,23.61
2022-08-25T11:41:28.236Z,23.63
2022-08-25T11:44:31.487Z,23.66
2022-08-25T11:47:21.617Z,23.67
2022-08-25T11:50:02.085Z,23.66
2022-08-25T11:52:51.099Z,23.67
2022-08-25T11:55:24.343Z,23.67
2022-08-25T11:58:14.971Z,23.68
2022-08-25T12:00:46.606Z,23.67
2022-08-25T12:03:52.185Z,23.69
2022-08-25T12:06:28.365Z,23.77
2022-08-25T12:09:20.613Z,23.89
2022-08-25T12:11:58.088Z,23.91
2022-08-25T12:14:45.849Z,23.93
2022-08-25T12:17:29.624Z,23.95
2022-08-25T12:20:01.278Z,23.92
2022-08-25T12:22:57.117Z,23.93
2022-08-25T12:25:43.737Z,23.92
2022-08-25T12:28:35.502Z,23.91
2022-08-25T12:31:17.286Z,23.91
2022-08-25T12:34:02.383Z,23.94
2022-08-25T12:36:34.202Z,23.95
2022-08-25T12:39:24.219Z,23.94
2022-08-25T12:41:59.237Z,23.89
2022-08-25T12:44:40.938Z,23.88
2022-08-25T12:47:28.330Z,23.88
2022-08-25T12:50:33.537Z,23.87
2022-08-25T12:53:16.364Z,23.84
2022-08-25T12:55:55.499Z,23.84
2022-08-25T12:58:43.725Z,23.82
2022-08-25T13:01:36.139Z,23.80
2022-08-25T13:04:25.326Z,23.76
2022-08-25T13:07:27.899Z,23.73
2022-08-25T13:10:25.503Z,23.71
2022-08-25T13:13:05.903Z,23.68
2022-08-25T13:15:44.416Z,23.63
2022-08-25T13:18:23.808Z,23.60
2022-08-25T13:20:57.044Z,23.61
2022-08-25T13:23:30.231Z,23.57
2022-08-25T13:26:00.027Z,23.59
2022-08-25T13:28:34.703Z,23.61
2022-08-25T13:31:08.265Z,23.68
2022-08-25T13:33:38.595Z,23.75
2022-08-25T13:36:34.881Z,23.84
2022-08-25T13:39:15.214Z,23.96
2022-08-25T13:41:50.106Z,24.01
2022-08-25T13:44:29.517Z,24.05
2022-08-25T13:47:10.129Z,24.08
2022-08-25T13:49:41.033Z,24.10
2022-08-25T13:52:19.289Z,24.12
2022-08-25T13:55:01.194Z,24.14
2022-08-25T13:57:34.564Z,24.15
2022-08-25T14:00:09.462Z,24.15
2022-08-25T14:02:44.203Z,24.13
2022-08-25T14:05:17.423Z,24.10
2022-08-25T14:08:03.869Z,24.15
2022-08-25T14:10:46.708Z,24.11
2022-08-25T14:13:18.972Z,24.14
2022-08-25T14:15:50.029Z,24.17
2022-08-25T14:18:27.082Z,24.18
2022-08-25T14:20:58.884Z,24.18
2022-08-25T14:23:30.426Z,24.15
2022-08-25T14:26:00.839Z,24.12
2022-08-25T14:28:31.923Z,24.11
2022-08-25T14:31:06.686Z,24.05
2022-08-25T14:33:39.740Z,24.01
2022-08-25T14:36:10.344Z,23.95
2022-08-25T14:38:41.281Z,23.94
2022-08-25T14:41:14.012Z,23.94
2022-08-25T14:43:45.330Z,23.92
2022-08-25T14:46:21.966Z,23.90
2022-08-25T14:48:56.622Z,23.87
2022-08-25T14:51:28.410Z,23.87
2022-08-25T14:54:02.585Z,23.85
2022-08-25T14:56:32.554Z,23.86
2022-08-25T14:59:02.399Z,23.85
2022-08-25T15:01:36.002Z,23.83
2022-08-25T15:04:10.036Z,23.81
2022-08-25T15:06:43.754Z,23.81
2022-08-25T15:09:16.311Z,23.81
2022-08-25T15:11:48.324Z,23.80
2022-08-25T15:14:29.131Z,23.78
2022-08-25T15:17:06.767Z,23.77
2022-08-25T15:19:36.683Z,23.73
2022-08-25T15:22:06.710Z,23.69
2022-08-25T15:24:37.971Z,23.65
2022-08-25T15:27:09.988Z,23.61
2022-08-25T15:29:40.906Z,23.59
2022-08-25T15:32:12.486Z,23.54
2022-08-25T15:34:41.787Z,23.53
2022-08-25T15:37:14.646Z,23.51
2022-08-25T15:39:45.184Z,23.50
2022-08-25T15:42:15.360Z,23.46
2022-08-25T15:44:53.110Z,23.46
2022-08-25T15:47:25.464Z,23.45
2022-08-25T15:50:04.958Z,23.43
2022-08-25T15:52:45.905Z,23.40
2022-08-25T15:55:18.172Z,23.37
2022-08-25T15:57:49.896Z,23.37
2022-08-25T16:00:19.658Z,23.32
2022-08-25T16:02:52.475Z,23.29
2022-08-25T16:05:25.739Z,23.26
2022-08-25T16:07:55.706Z,23.25
2022-08-25T16:10:25.113Z,23.22
2022-08-25T16:12:54.481Z,23.18
2022-08-25T16:15:28.631Z,23.17
2022-08-25T16:18:01.291Z,23.12
2022-08-25T16:20:31.757Z,23.09
2022-08-25T16:23:03.860Z,23.07
2022-08-25T16:25:33.805Z,23.05
2022-08-25T16:28:05.917Z,23.02
2022-08-25T16:30:35.641Z,23.01
2022-08-25T16:33:06.755Z,22.98
2022-08-25T16:35:36.866Z,22.96
2022-08-25T16:38:10.161Z,22.93
2022-08-25T16:40:43.347Z,22.93
2022-08-25T16:43:13.345Z,22.90
2022-08-25T16:45:42.884Z,22.86
2022-08-25T16:48:13.540Z,22.84
2022-08-25T16:50:42.839Z,22.84
2022-08-25T16:53:32.592Z,22.80
2022-08-25T16:56:07.525Z,22.79
2022-08-25T16:58:38.583Z,22.77
2022-08-25T17:01:11.435Z,22.75
2022-08-25T17:03:43.968Z,22.71
2022-08-25T17:06:14.262Z,22.68
2022-08-25T17:08:44.717Z,22.66
2022-08-25T17:11:15.919Z,22.63
2022-08-25T17:13:47.816Z,22.62
2022-08-25T17:16:21.560Z,22.62
2022-08-25T17:18:52.489Z,22.59
2022-08-25T17:21:26.867Z,22.60
2022-08-25T17:23:57.901Z,22.61
2022-08-25T17:26:29.065Z,22.58
2022-08-25T17:28:59.622Z,22.54
2022-08-25T17:31:30.942Z,22.52
2022-08-25T17:34:02.073Z,22.51
2022-08-25T17:36:31.384Z,22.49
2022-08-25T17:39:01.432Z,22.47
2022-08-25T17:41:31.288Z,22.45
2022-08-25T17:44:00.832Z,22.44
2022-08-25T17:46:30.815Z,22.39
2022-08-25T17:49:01.506Z,22.39
2022-08-25T17:51:31.776Z,22.38
2022-08-25T17:54:01.582Z,22.36
2022-08-25T17:56:33.424Z,22.35
2022-08-25T17:59:02.980Z,22.33
2022-08-25T18:01:35.358Z,22.33
2022-08-25T18:04:17.680Z,22.29
2022-08-25T18:06:49.371Z,22.28
2022-08-25T18:09:19.162Z,22.28
2022-08-25T18:11:48.590Z,22.26
2022-08-25T18:14:21.192Z,22.26
2022-08-25T18:16:54.005Z,22.27
2022-08-25T18:19:24.980Z,22.25
2022-08-25T18:21:54.490Z,22.24
2022-08-25T18:24:23.843Z,22.22
2022-08-25T18:26:53.167Z,22.21
2022-08-25T18:29:22.813Z,22.16
2022-08-25T18:31:53.670Z,22.17
2022-08-25T18:34:27.269Z,22.16
2022-08-25T18:37:20.112Z,22.15
2022-08-25T18:40:06.998Z,22.11
2022-08-25T18:42:36.881Z,22.10
2022-08-25T18:45:08.106Z,22.08
2022-08-25T18:47:41.880Z,22.08
2022-08-25T18:50:13.650Z,22.07
2022-08-25T18:52:44.119Z,22.05
2022-08-25T18:55:13.708Z,22.04
2022-08-25T18:57:43.518Z,22.02
2022-08-25T19:00:17.053Z,22.02
2022-08-25T19:02:47.563Z,22.00
2022-08-25T19:05:20.467Z,21.98
2022-08-25T19:07:51.786Z,21.95
2022-08-25T19:10:24.047Z,21.94
2022-08-25T19:12:55.558Z,21.92
2022-08-25T19:15:27.190Z,21.92
2022-08-25T19:17:59.874Z,21.88
2022-08-25T19:20:31.215Z,21.88
2022-08-25T19:23:01.189Z,21.85
2022-08-25T19:25:33.044Z,21.85
2022-08-25T19:28:08.369Z,21.84
2022-08-25T19:30:43.718Z,21.85
2022-08-25T19:33:37.709Z,21.83
2022-08-25T19:36:11.962Z,21.82
2022-08-25T19:38:44.033Z,21.81
2022-08-25T19:41:15.080Z,21.82
2022-08-25T19:43:56.781Z,21.80
2022-08-25T19:46:35.387Z,21.81
2022-08-25T19:49:09.005Z,21.80
2022-08-25T19:51:44.344Z,21.80
2022-08-25T19:54:16.220Z,21.79
2022-08-25T19:56:54.875Z,21.80
2022-08-25T19:59:42.315Z,21.78
2022-08-25T20:02:17.106Z,21.80
2022-08-25T20:04:49.308Z,21.79
2022-08-25T20:07:22.860Z,21.78
2022-08-25T20:09:54.587Z,21.80
2022-08-25T20:12:25.244Z,21.75
2022-08-25T20:14:56.488Z,21.75
2022-08-25T20:17:28.274Z,21.71
2022-08-25T20:20:00.741Z,21.71
2022-08-25T20:22:33.959Z,21.71
2022-08-25T20:25:13.158Z,21.69
2022-08-25T20:27:45.339Z,21.68
2022-08-25T20:30:18.178Z,21.69
2022-08-25T20:32:47.561Z,21.67
2022-08-25T20:35:18.218Z,21.67
2022-08-25T20:37:49.780Z,21.67
2022-08-25T20:40:25.753Z,21.65
2022-08-25T20:42:55.723Z,21.64
2022-08-25T20:45:25.586Z,21.63
2022-08-25T20:47:54.896Z,21.63
2022-08-25T20:52:57.636Z,21.62
2022-08-25T20:55:27.777Z,21.61
2022-08-25T20:57:58.388Z,21.62
2022-08-25T21:00:27.682Z,21.61
2022-08-25T21:02:56.984Z,21.61
2022-08-25T21:05:26.571Z,21.60
2022-08-25T21:07:57.245Z,21.61
2022-08-25T21:10:26.829Z,21.60
2022-08-25T21:12:56.311Z,21.62
2022-08-25T21:15:26.329Z,21.62
2022-08-25T21:17:56.732Z,21.60
2022-08-25T21:20:27.078Z,21.61
2022-08-25T21:22:57.833Z,21.60
2022-08-25T21:25:27.337Z,21.60
2022-08-25T21:27:56.686Z,21.59
2022-08-25T21:30:27.217Z,21.60
2022-08-25T21:32:58.163Z,21.59
2022-08-25T21:35:27.882Z,21.59
2022-08-25T21:38:00.149Z,21.60
2022-08-25T21:40:29.503Z,21.59
2022-08-25T21:42:58.765Z,21.59
2022-08-25T21:45:28.280Z,21.59
2022-08-25T21:48:05.898Z,21.58
2022-08-25T21:50:35.594Z,21.57
2022-08-25T21:53:06.472Z,21.56
2022-08-25T21:55:41.912Z,21.55
2022-08-25T21:58:11.369Z,21.55
2022-08-25T22:00:40.918Z,21.54
2022-08-25T22:03:10.189Z,21.55
2022-08-25T22:05:39.569Z,21.54
2022-08-25T22:08:11.560Z,21.54
2022-08-25T22:10:44.839Z,21.55
2022-08-25T22:13:14.334Z,21.53
2022-08-25T22:15:43.660Z,21.53
2022-08-25T22:18:12.958Z,21.52
2022-08-25T22:20:42.617Z,21.52
2022-08-25T22:23:20.148Z,21.54
2022-08-25T22:25:50.072Z,21.53
2022-08-25T22:28:20.871Z,21.53
2022-08-25T22:30:51.166Z,21.53
2022-08-25T22:33:20.466Z,21.55
2022-08-25T22:35:53.163Z,21.52
2022-08-25T22:38:31.577Z,21.52
2022-08-25T22:41:03.612Z,21.53
2022-08-25T22:43:33.076Z,21.52
2022-08-25T22:46:03.666Z,21.52
2022-08-25T22:48:33.008Z,21.53
2022-08-25T22:51:09.604Z,21.54
2022-08-25T22:53:42.313Z,21.52
2022-08-25T22:56:13.361Z,21.53
2022-08-25T22:58:52.158Z,21.53
2022-08-25T23:01:22.853Z,21.53
2022-08-25T23:03:52.587Z,21.54
2022-08-25T23:06:25.223Z,21.54
2022-08-25T23:08:57.644Z,21.52
2022-08-25T23:11:27.097Z,21.53
2022-08-25T23:14:02.193Z,21.54
2022-08-25T23:16:31.770Z,21.55
2022-08-25T23:19:01.801Z,21.55
2022-08-25T23:21:49.200Z,21.55
2022-08-25T23:24:29.135Z,21.59
2022-08-25T23:27:00.993Z,21.58
2022-08-25T23:29:31.156Z,21.55
2022-08-25T23:32:00.443Z,21.57
2022-08-25T23:34:30.776Z,21.57
2022-08-25T23:37:04.308Z,21.55
2022-08-25T23:39:34.976Z,21.57
2022-08-25T23:42:09.552Z,21.57
2022-08-25T23:44:38.598Z,21.57
2022-08-25T23:47:08.020Z,21.56
2022-08-25T23:49:41.587Z,21.57
2022-08-25T23:52:10.945Z,21.57
2022-08-25T23:54:41.643Z,21.57
2022-08-25T23:57:11.186Z,21.58
2022-08-25T23:59:40.901Z,21.59
